Main page
METAR-TAF:

METAR-TAF

Airports :

Beauvais–Tillé Airport

Beauvais, France

latitude: 49-28N, longitude: 002-07E, elevation: 109 m

Current weather observation

The report was made 16 minutes ago, at 20:00 UTC
Wind 10 kt from the East
Temperature 11°C
Humidity 82%
Pressure 1009 hPa
Visibility 10 km or more
no clouds below 1500 m and no cumulonimbus

METAR: LFOB 282000Z AUTO 09010KT CAVOK 11/08 Q1009 BECMG 15010KT

Time: 22:16 (20:16 UTC)

Forecast

The report was made 55 minutes ago, at 19:21 UTC
Forecast valid from 28 at 19 UTC to 29 at 18 UTC
Wind 10 kt from the South/Southeast
Visibility 10 km or more
no clouds below 1500 m and no cumulonimbus
Temporary
from 29 at 09 UTC to 29 at 18 UTC
Wind 15 kt from the South with gusts up to 25 kt
Visibility: 3000 m
Broken clouds at a height of 700 ft
Broken clouds at a height of 2000 ft, Cumulonimbus.
rain showers

TAF: LFOB 281921Z 2819/2918 15010KT CAVOK TEMPO 2909/2918 17015G25KT 3000 SHRA BKN007 BKN020CB

Weather observations and forecasts of more than 4000 airports (METAR and TAF reports).

The available stations are represented by yellow and red dots on the map.

Hover mouse over dot to see the name of the station.

Then click to see weather observations and forecasts.

To change the map : click on the green buttons with a black cross to zoom in, on the green button with a dash to zoom out, or on the green arrows for adjacent maps.


METAR-TAF: